Time;durP1;ratioP1;P1;durP2;ratioP2;P2;SDS_P1;SDS_P2;PMS_P1;PMS_P2;Temp;Humidity;BMP_temperature;BMP_pressure;BME280_temperature;BME280_humidity;BME280_pressure;Samples;Min_cycle;Max_cycle;Signal;HPM_P1;HPM_P2
2024/03/11 00:00:45;;;;;;;;;;;;;;;-144.99;100.00;67352.69;5095495;28;19912;-81
2024/03/11 00:03:10;;;;;;;;;;;;;;;-144.99;100.00;67352.69;5097331;28;20382;-81
2024/03/11 00:05:35;;;;;;;;;;;;;;;-144.99;100.00;67352.69;5095455;28;19913;-82
2024/03/11 00:08:01;;;;;;;;;;;;;;;-144.99;100.00;67352.69;5097279;28;19919;-81
2024/03/11 00:10:27;;;;;;;;;;;;;;;-144.99;100.00;67352.69;5096239;28;20035;-81
2024/03/11 00:12:53;;;;;;;;;;;;;;;-144.99;100.00;67352.69;5097218;28;19919;-81
2024/03/11 00:15:23;;;;;;;;;;;;;;;-144.99;100.00;67352.69;5095320;28;20083;-81
2024/03/11 00:17:48;;;;;;;;;;;;;;;-144.99;100.00;67352.69;5095144;28;20386;-82
2024/03/11 00:20:14;;;;;;;;;;;;;;;-144.99;100.00;67352.69;5094635;28;19912;-82
2024/03/11 00:22:39;;;;;;;;;;;;;;;-144.99;100.00;67352.69;5096188;28;20011;-81
2024/03/11 00:25:05;;;;;;;;;;;;;;;-144.99;100.00;67352.69;5094842;28;19912;-82
2024/03/11 00:27:31;;;;;;;;;;;;;;;-144.99;100.00;67352.69;5094746;28;19950;-81
2024/03/11 00:29:56;;;;;;;;;;;;;;;-144.99;100.00;67352.69;5095852;28;19917;-81
2024/03/11 00:32:24;;;;;;;;;;;;;;;-144.99;100.00;67352.69;5094759;28;19913;-82
2024/03/11 00:34:51;;;;;;;;;;;;;;;-144.99;100.00;67352.69;5094923;28;19922;-82
2024/03/11 00:37:16;;;;;;;;;;;;;;;-144.99;100.00;67352.69;5094616;28;20306;-82
2024/03/11 00:39:42;;;;;;;;;;;;;;;-144.99;100.00;67352.69;5095164;28;19916;-82
2024/03/11 00:42:07;;;;;;;;;;;;;;;-144.99;100.00;67352.69;5096625;28;20424;-82
2024/03/11 00:44:32;;;;;;;;;;;;;;;-144.99;100.00;67352.69;5096745;28;19916;-82
2024/03/11 00:46:58;;;;;;;;;;;;;;;-144.99;100.00;67352.69;5095216;28;19987;-82
2024/03/11 00:49:26;;;;;;;;;;;;;;;-144.99;100.00;67352.69;5096291;28;19912;-82
2024/03/11 00:51:51;;;;;;;;;;;;;;;-144.99;100.00;67352.69;5099530;28;19948;-82
2024/03/11 00:54:16;;;;;;;;;;;;;;;-144.99;100.00;67352.69;5098140;28;19941;-82
2024/03/11 00:56:42;;;;;;;;;;;;;;;-144.99;100.00;67352.69;5097396;28;20290;-82
2024/03/11 00:59:09;;;;;;;;;;;;;;;-144.99;100.00;67352.69;5095264;28;19939;-82
2024/03/11 01:01:34;;;;;;;;;;;;;;;-144.99;100.00;67352.69;5096431;28;19916;-82
2024/03/11 01:04:00;;;;;;;;;;;;;;;-144.99;100.00;67352.69;5095834;28;20393;-81
2024/03/11 01:06:25;;;;;;;;;;;;;;;-144.99;100.00;67352.69;5095277;28;20386;-82
2024/03/11 01:08:51;;;;;;;;;;;;;;;-144.99;100.00;67352.69;5094948;28;19935;-82
2024/03/11 01:11:16;;;;;;;;;;;;;;;-144.99;100.00;67352.69;5098534;28;19912;-82
2024/03/11 01:13:41;;;;;;;;;;;;;;;-144.99;100.00;67352.69;5098007;28;19918;-82
2024/03/11 01:16:08;;;;;;;;;;;;;;;-144.99;100.00;67352.69;5097409;28;20026;-82
2024/03/11 01:18:33;;;;;;;;;;;;;;;-144.99;100.00;67352.69;5096043;28;19926;-82
2024/03/11 01:20:59;;;;;;;;;;;;;;;-144.99;100.00;67352.69;5097406;28;19916;-82
2024/03/11 01:23:25;;;;;;;;;;;;;;;-144.99;100.00;67352.69;5096592;28;20306;-82
2024/03/11 01:25:50;;;;;;;;;;;;;;;-144.99;100.00;67352.69;5095783;28;19912;-81
2024/03/11 01:28:17;;;;;;;;;;;;;;;-144.99;100.00;67352.69;5097441;28;19937;-82
2024/03/11 01:30:42;;;;;;;;;;;;;;;-144.99;100.00;67352.69;5094706;28;20408;-81
2024/03/11 01:33:07;;;;;;;;;;;;;;;-144.99;100.00;67352.69;5095908;28;19912;-81
2024/03/11 01:35:34;;;;;;;;;;;;;;;-144.99;100.00;67352.69;5093954;28;19912;-81
2024/03/11 01:38:00;;;;;;;;;;;;;;;-144.99;100.00;67352.69;5092338;28;19923;-82
2024/03/11 01:40:28;;;;;;;;;;;;;;;-144.99;100.00;67352.69;5092522;28;20275;-81
2024/03/11 01:42:54;;;;;;;;;;;;;;;-144.99;100.00;67352.69;5092882;28;19924;-82
2024/03/11 01:45:22;;;;;;;;;;;;;;;-144.99;100.00;67352.69;5099031;28;19923;-82
2024/03/11 01:47:47;;;;;;;;;;;;;;;-144.99;100.00;67352.69;5104228;28;20394;-82
2024/03/11 01:50:13;;;;;;;;;;;;;;;-144.99;100.00;67352.69;5101511;28;19938;-82
2024/03/11 01:53:03;;;;;;;;;;;;;;;-144.99;100.00;67352.69;5102072;28;19938;-82
2024/03/11 01:55:29;;;;;;;;;;;;;;;-144.99;100.00;67352.69;5103372;28;19912;-82
2024/03/11 01:57:55;;;;;;;;;;;;;;;-144.99;100.00;67352.69;5100879;28;19911;-81
2024/03/11 02:00:24;;;;;;;;;;;;;;;-144.99;100.00;67352.69;5099613;28;19918;-81
2024/03/11 02:02:53;;;;;;;;;;;;;;;-144.99;100.00;67352.69;5099927;28;19931;-82
2024/03/11 02:05:19;;;;;;;;;;;;;;;-144.99;100.00;67352.69;5102514;28;20355;-81
2024/03/11 02:07:46;;;;;;;;;;;;;;;-144.99;100.00;67352.69;5100732;28;19920;-82
2024/03/11 02:10:14;;;;;;;;;;;;;;;-144.99;100.00;67352.69;5099528;28;20360;-81
2024/03/11 02:12:45;;;;;;;;;;;;;;;-144.99;100.00;67352.69;5100831;28;19931;-81
2024/03/11 02:15:11;;;;;;;;;;;;;;;-144.99;100.00;67352.69;5098671;28;19935;-81
2024/03/11 02:17:39;;;;;;;;;;;;;;;-144.99;100.00;67352.69;5098544;28;20367;-81
2024/03/11 02:20:16;;;;;;;;;;;;;;;-144.99;100.00;67352.69;5090927;28;19940;-81
2024/03/11 02:23:01;;;;;;;;;;;;;;;-144.99;100.00;67352.69;5095983;28;19916;-81
2024/03/11 02:25:27;;;;;;;;;;;;;;;-144.99;100.00;67352.69;5090166;28;19926;-81
2024/03/11 02:27:54;;;;;;;;;;;;;;;-144.99;100.00;67352.69;5096617;28;19912;-82
2024/03/11 02:30:19;;;;;;;;;;;;;;;-144.99;100.00;67352.69;5095553;28;19942;-81
2024/03/11 02:32:45;;;;;;;;;;;;;;;-144.99;100.00;67352.69;5096409;28;19930;-81
2024/03/11 02:35:10;;;;;;;;;;;;;;;-144.99;100.00;67352.69;5097385;28;20327;-81
2024/03/11 02:37:36;;;;;;;;;;;;;;;-144.99;100.00;67352.69;5092349;28;19912;-81
2024/03/11 02:40:06;;;;;;;;;;;;;;;-144.99;100.00;67352.69;5091406;28;19912;-81
2024/03/11 02:42:31;;;;;;;;;;;;;;;-144.99;100.00;67352.69;5091924;28;19920;-81
2024/03/11 02:44:57;;;;;;;;;;;;;;;-144.99;100.00;67352.69;5091946;28;19919;-81
2024/03/11 02:47:23;;;;;;;;;;;;;;;-144.99;100.00;67352.69;5091451;28;19912;-81
2024/03/11 02:49:48;;;;;;;;;;;;;;;-144.99;100.00;67352.69;5091602;28;19917;-81
2024/03/11 02:52:13;;;;;;;;;;;;;;;-144.99;100.00;67352.69;5093225;28;19965;-81
2024/03/11 02:54:39;;;;;;;;;;;;;;;-144.99;100.00;67352.69;5092424;28;19916;-81
2024/03/11 02:57:05;;;;;;;;;;;;;;;-144.99;100.00;67352.69;5083319;28;19956;-81
2024/03/11 02:59:30;;;;;;;;;;;;;;;-144.99;100.00;67352.69;5091379;28;19958;-81
2024/03/11 03:01:55;;;;;;;;;;;;;;;-144.99;100.00;67352.69;5092630;28;19915;-81
2024/03/11 03:04:21;;;;;;;;;;;;;;;-144.99;100.00;67352.69;5092039;28;20309;-81
2024/03/11 03:06:46;;;;;;;;;;;;;;;-144.99;100.00;67352.69;5091082;28;19912;-81
2024/03/11 03:09:12;;;;;;;;;;;;;;;-144.99;100.00;67352.69;5092545;28;19964;-81
2024/03/11 03:11:40;;;;;;;;;;;;;;;-144.99;100.00;67352.69;5092506;28;20011;-81
2024/03/11 03:14:06;;;;;;;;;;;;;;;-144.99;100.00;67352.69;5092552;28;19919;-82
2024/03/11 03:16:32;;;;;;;;;;;;;;;-144.99;100.00;67352.69;5092152;28;20290;-82
2024/03/11 03:18:57;;;;;;;;;;;;;;;-144.99;100.00;67352.69;5090903;28;19912;-81
2024/03/11 03:21:22;;;;;;;;;;;;;;;-144.99;100.00;67352.69;5091516;28;20113;-81
2024/03/11 03:23:47;;;;;;;;;;;;;;;-144.99;100.00;67352.69;5091557;28;19916;-81
2024/03/11 03:26:13;;;;;;;;;;;;;;;-144.99;100.00;67352.69;5091197;28;20392;-81
2024/03/11 03:28:38;;;;;;;;;;;;;;;-144.99;100.00;67352.69;5090395;28;19926;-82
2024/03/11 03:31:04;;;;;;;;;;;;;;;-144.99;100.00;67352.69;5091949;28;20212;-82
2024/03/11 03:33:30;;;;;;;;;;;;;;;-144.99;100.00;67352.69;5092298;28;19916;-82
2024/03/11 03:35:55;;;;;;;;;;;;;;;-144.99;100.00;67352.69;5091019;28;19912;-82
2024/03/11 03:38:20;;;;;;;;;;;;;;;-144.99;100.00;67352.69;5092932;28;19958;-81
2024/03/11 03:40:46;;;;;;;;;;;;;;;-144.99;100.00;67352.69;5089452;28;19912;-81
2024/03/11 03:43:11;;;;;;;;;;;;;;;-144.99;100.00;67352.69;5090919;28;20010;-81
2024/03/11 03:45:36;;;;;;;;;;;;;;;-144.99;100.00;67352.69;5092370;28;19912;-81
2024/03/11 03:48:02;;;;;;;;;;;;;;;-144.99;100.00;67352.69;5092389;28;19912;-81
2024/03/11 03:50:27;;;;;;;;;;;;;;;-144.99;100.00;67352.69;5090432;28;19989;-81
2024/03/11 03:52:53;;;;;;;;;;;;;;;-144.99;100.00;67352.69;5090728;28;19934;-82
2024/03/11 03:55:18;;;;;;;;;;;;;;;-144.99;100.00;67352.69;5090889;28;20393;-81
2024/03/11 03:57:44;;;;;;;;;;;;;;;-144.99;100.00;67352.69;5090594;28;20474;-81
2024/03/11 04:00:15;;;;;;;;;;;;;;;-144.99;100.00;67352.69;5094005;28;19916;-81
2024/03/11 04:02:42;;;;;;;;;;;;;;;-144.99;100.00;67352.69;5094129;28;19951;-81
2024/03/11 04:05:08;;;;;;;;;;;;;;;-144.99;100.00;67352.69;5094322;28;19912;-81
2024/03/11 04:07:33;;;;;;;;;;;;;;;-144.99;100.00;67352.69;5093975;28;20370;-81
2024/03/11 04:10:00;;;;;;;;;;;;;;;-144.99;100.00;67352.69;5093220;28;19916;-81
2024/03/11 04:12:25;;;;;;;;;;;;;;;-144.99;100.00;67352.69;5094063;28;20173;-81
2024/03/11 04:14:51;;;;;;;;;;;;;;;-144.99;100.00;67352.69;5095176;28;19958;-82
2024/03/11 04:17:16;;;;;;;;;;;;;;;-144.99;100.00;67352.69;5093775;28;19920;-81
2024/03/11 04:19:41;;;;;;;;;;;;;;;-144.99;100.00;67352.69;5094418;28;19948;-81
2024/03/11 04:22:06;;;;;;;;;;;;;;;-144.99;100.00;67352.69;5093896;28;20417;-82
2024/03/11 04:24:32;;;;;;;;;;;;;;;-144.99;100.00;67352.69;5095104;28;19912;-82
2024/03/11 04:26:59;;;;;;;;;;;;;;;-144.99;100.00;67352.69;5094800;28;19913;-82
2024/03/11 04:29:24;;;;;;;;;;;;;;;-144.99;100.00;67352.69;5092822;28;19913;-82
2024/03/11 04:31:50;;;;;;;;;;;;;;;-144.99;100.00;67352.69;5093736;28;19918;-81
2024/03/11 04:34:15;;;;;;;;;;;;;;;-144.99;100.00;67352.69;5093581;28;19970;-81
2024/03/11 04:36:41;;;;;;;;;;;;;;;-144.99;100.00;67352.69;5100216;28;19923;-81
2024/03/11 04:39:06;;;;;;;;;;;;;;;-144.99;100.00;67352.69;5102543;28;19912;-82
2024/03/11 04:41:32;;;;;;;;;;;;;;;-144.99;100.00;67352.69;5104366;28;19919;-82
2024/03/11 04:43:58;;;;;;;;;;;;;;;-144.99;100.00;67352.69;5105656;28;19919;-81
2024/03/11 04:46:23;;;;;;;;;;;;;;;-144.99;100.00;67352.69;5103182;28;19919;-82
2024/03/11 04:48:48;;;;;;;;;;;;;;;-144.99;100.00;67352.69;5102956;28;19916;-81
2024/03/11 04:51:14;;;;;;;;;;;;;;;-144.99;100.00;67352.69;5102182;28;19919;-81
2024/03/11 04:53:39;;;;;;;;;;;;;;;-144.99;100.00;67352.69;5101863;28;20313;-81
2024/03/11 04:56:06;;;;;;;;;;;;;;;-144.99;100.00;67352.69;5101716;28;19926;-82
2024/03/11 04:58:31;;;;;;;;;;;;;;;-144.99;100.00;67352.69;5101538;28;19915;-82
2024/03/11 05:00:57;;;;;;;;;;;;;;;-144.99;100.00;67352.69;5100645;28;19912;-82
2024/03/11 05:03:22;;;;;;;;;;;;;;;-144.99;100.00;67352.69;5100089;28;19927;-81
2024/03/11 05:05:47;;;;;;;;;;;;;;;-144.99;100.00;67352.69;5099527;28;20294;-81
2024/03/11 05:08:13;;;;;;;;;;;;;;;-144.99;100.00;67352.69;5101412;28;19912;-82
2024/03/11 05:10:38;;;;;;;;;;;;;;;-144.99;100.00;67352.69;5099482;28;20271;-81
2024/03/11 05:13:04;;;;;;;;;;;;;;;-144.99;100.00;67352.69;5099705;28;19920;-82
2024/03/11 05:15:29;;;;;;;;;;;;;;;-144.99;100.00;67352.69;5098610;28;19923;-82
2024/03/11 05:17:55;;;;;;;;;;;;;;;-144.99;100.00;67352.69;5099372;28;19912;-81
2024/03/11 05:20:20;;;;;;;;;;;;;;;-144.99;100.00;67352.69;5097434;28;20003;-82
2024/03/11 05:22:46;;;;;;;;;;;;;;;-144.99;100.00;67352.69;5098139;28;20005;-82
2024/03/11 05:25:14;;;;;;;;;;;;;;;-144.99;100.00;67352.69;5099072;28;19916;-82
2024/03/11 05:27:40;;;;;;;;;;;;;;;-144.99;100.00;67352.69;5097802;28;19938;-81
2024/03/11 05:30:06;;;;;;;;;;;;;;;-144.99;100.00;67352.69;5097843;28;19912;-82
2024/03/11 05:32:31;;;;;;;;;;;;;;;-144.99;100.00;67352.69;5088852;28;20011;-81
2024/03/11 05:34:57;;;;;;;;;;;;;;;-144.99;100.00;67352.69;5097076;28;19936;-81
2024/03/11 05:37:22;;;;;;;;;;;;;;;-144.99;100.00;67352.69;5095512;28;20361;-81
2024/03/11 05:39:48;;;;;;;;;;;;;;;-144.99;100.00;67352.69;5096768;28;19915;-81
2024/03/11 05:42:14;;;;;;;;;;;;;;;-144.99;100.00;67352.69;5095419;28;19923;-82
2024/03/11 05:44:40;;;;;;;;;;;;;;;-144.99;100.00;67352.69;5096627;28;19916;-81
2024/03/11 05:47:06;;;;;;;;;;;;;;;-144.99;100.00;67352.69;5094159;28;20439;-82
2024/03/11 05:49:32;;;;;;;;;;;;;;;-144.99;100.00;67352.69;5095289;28;19919;-82
2024/03/11 05:51:57;;;;;;;;;;;;;;;-144.99;100.00;67352.69;5094190;28;20097;-82
2024/03/11 05:54:24;;;;;;;;;;;;;;;-144.99;100.00;67352.69;5095304;28;20034;-81
2024/03/11 05:56:58;;;;;;;;;;;;;;;-144.99;100.00;67352.69;5094124;28;20440;-81
2024/03/11 05:59:24;;;;;;;;;;;;;;;-144.99;100.00;67352.69;5093170;28;19912;-81
2024/03/11 06:01:49;;;;;;;;;;;;;;;-144.99;100.00;67352.69;5093394;28;19927;-81
2024/03/11 06:04:15;;;;;;;;;;;;;;;-144.99;100.00;67352.69;5095291;28;19917;-81
2024/03/11 06:06:47;;;;;;;;;;;;;;;-144.99;100.00;67352.69;5091354;28;19912;-81
2024/03/11 06:09:14;;;;;;;;;;;;;;;-144.99;100.00;67352.69;5092494;28;19919;-81
2024/03/11 06:11:43;;;;;;;;;;;;;;;-144.99;100.00;67352.69;5093029;28;20390;-82
2024/03/11 06:14:15;;;;;;;;;;;;;;;-144.99;100.00;67352.69;5093697;28;20298;-81
2024/03/11 06:16:42;;;;;;;;;;;;;;;-144.99;100.00;67352.69;5091511;28;19923;-81
2024/03/11 06:19:08;;;;;;;;;;;;;;;-144.99;100.00;67352.69;5092115;28;19966;-81
2024/03/11 06:21:34;;;;;;;;;;;;;;;-144.99;100.00;67352.69;5091183;28;19934;-81
2024/03/11 06:24:00;;;;;;;;;;;;;;;-144.99;100.00;67352.69;5091771;28;20378;-81
2024/03/11 06:26:31;;;;;;;;;;;;;;;-144.99;100.00;67352.69;5090973;28;19948;-81
2024/03/11 06:28:56;;;;;;;;;;;;;;;-144.99;100.00;67352.69;5090556;28;19912;-81
2024/03/11 06:31:24;;;;;;;;;;;;;;;-144.99;100.00;67352.69;5092762;28;19935;-81
2024/03/11 06:33:50;;;;;;;;;;;;;;;-144.99;100.00;67352.69;5091383;28;19920;-81
2024/03/11 06:36:16;;;;;;;;;;;;;;;-144.99;100.00;67352.69;5092814;28;19951;-81
2024/03/11 06:38:42;;;;;;;;;;;;;;;-144.99;100.00;67352.69;5091536;28;20438;-81
2024/03/11 06:41:08;;;;;;;;;;;;;;;-144.99;100.00;67352.69;5092781;28;19947;-81
2024/03/11 06:43:33;;;;;;;;;;;;;;;-144.99;100.00;67352.69;5092184;28;19943;-81
2024/03/11 06:45:58;;;;;;;;;;;;;;;-144.99;100.00;67352.69;5092000;28;19912;-81
2024/03/11 06:48:23;;;;;;;;;;;;;;;-144.99;100.00;67352.69;5091048;28;20274;-81
2024/03/11 06:50:49;;;;;;;;;;;;;;;-144.99;100.00;67352.69;5091562;28;20174;-81
2024/03/11 06:53:14;;;;;;;;;;;;;;;-144.99;100.00;67352.69;5091128;28;19912;-81
2024/03/11 06:55:39;;;;;;;;;;;;;;;-144.99;100.00;67352.69;5090989;28;19916;-81
2024/03/11 06:58:05;;;;;;;;;;;;;;;-144.99;100.00;67352.69;5092355;28;20420;-81
2024/03/11 07:00:30;;;;;;;;;;;;;;;-144.99;100.00;67352.69;5091381;28;19995;-81
2024/03/11 07:02:56;;;;;;;;;;;;;;;-144.99;100.00;67352.69;5091898;28;19931;-81
2024/03/11 07:05:26;;;;;;;;;;;;;;;-144.99;100.00;67352.69;5091942;28;20064;-81
2024/03/11 07:07:51;;;;;;;;;;;;;;;-144.99;100.00;67352.69;5092790;28;20346;-81
2024/03/11 07:10:17;;;;;;;;;;;;;;;-144.99;100.00;67352.69;5090306;28;20011;-81
2024/03/11 07:12:42;;;;;;;;;;;;;;;-144.99;100.00;67352.69;5087894;28;19954;-80
2024/03/11 07:15:09;;;;;;;;;;;;;;;-144.99;100.00;67352.69;5085302;28;19912;-80
2024/03/11 07:17:34;;;;;;;;;;;;;;;-144.99;100.00;67352.69;5082419;28;19912;-81
2024/03/11 07:19:59;;;;;;;;;;;;;;;-144.99;100.00;67352.69;5091565;28;19923;-81
2024/03/11 07:22:25;;;;;;;;;;;;;;;-144.99;100.00;67352.69;5083663;28;20302;-81
2024/03/11 07:24:53;;;;;;;;;;;;;;;-144.99;100.00;67352.69;5092393;28;19912;-81
2024/03/11 07:27:18;;;;;;;;;;;;;;;-144.99;100.00;67352.69;5092179;28;19912;-81
2024/03/11 07:29:44;;;;;;;;;;;;;;;-144.99;100.00;67352.69;5100988;28;19977;-81
2024/03/11 07:32:11;;;;;;;;;;;;;;;-144.99;100.00;67352.69;5102019;28;19916;-81
2024/03/11 07:34:39;;;;;;;;;;;;;;;-144.99;100.00;67352.69;5105660;28;19912;-81
2024/03/11 07:37:05;;;;;;;;;;;;;;;-144.99;100.00;67352.69;5107434;28;19912;-81
2024/03/11 07:39:31;;;;;;;;;;;;;;;-144.99;100.00;67352.69;5105941;28;19959;-81
2024/03/11 07:41:57;;;;;;;;;;;;;;;-144.99;100.00;67352.69;5106843;28;19916;-81
2024/03/11 07:44:22;;;;;;;;;;;;;;;-144.99;100.00;67352.69;5104866;28;19912;-81
2024/03/11 07:46:47;;;;;;;;;;;;;;;-144.99;100.00;67352.69;5105728;28;19913;-81
2024/03/11 07:49:13;;;;;;;;;;;;;;;-144.99;100.00;67352.69;5104949;28;19912;-81
2024/03/11 07:51:38;;;;;;;;;;;;;;;-144.99;100.00;67352.69;5105297;28;19933;-81
2024/03/11 07:54:03;;;;;;;;;;;;;;;-144.99;100.00;67352.69;5102881;28;20185;-81
2024/03/11 07:56:28;;;;;;;;;;;;;;;-144.99;100.00;67352.69;5102494;28;19920;-81
2024/03/11 07:58:54;;;;;;;;;;;;;;;-144.99;100.00;67352.69;5103234;28;19912;-81
2024/03/11 08:01:21;;;;;;;;;;;;;;;-144.99;100.00;67352.69;5104171;28;20328;-81
2024/03/11 08:03:46;;;;;;;;;;;;;;;-144.99;100.00;67352.69;5101562;28;19963;-82
2024/03/11 08:06:12;;;;;;;;;;;;;;;-144.99;100.00;67352.69;5100468;28;19912;-81
2024/03/11 08:08:37;;;;;;;;;;;;;;;-144.99;100.00;67352.69;5099238;28;20370;-81
2024/03/11 08:11:02;;;;;;;;;;;;;;;-144.99;100.00;67352.69;5100459;28;19938;-81
2024/03/11 08:13:28;;;;;;;;;;;;;;;-144.99;100.00;67352.69;5101195;28;20398;-81
2024/03/11 08:15:53;;;;;;;;;;;;;;;-144.99;100.00;67352.69;5099345;28;20343;-82
2024/03/11 08:18:19;;;;;;;;;;;;;;;-144.99;100.00;67352.69;5098434;28;19958;-81
2024/03/11 08:20:45;;;;;;;;;;;;;;;-144.99;100.00;67352.69;5098887;28;19967;-81
2024/03/11 08:23:10;;;;;;;;;;;;;;;-144.99;100.00;67352.69;5098801;28;19916;-81
2024/03/11 08:25:35;;;;;;;;;;;;;;;-144.99;100.00;67352.69;5099120;28;19919;-81
2024/03/11 08:28:01;;;;;;;;;;;;;;;-144.99;100.00;67352.69;5100290;28;20370;-81
2024/03/11 08:30:27;;;;;;;;;;;;;;;-144.99;100.00;67352.69;5097800;28;20405;-81
2024/03/11 08:32:52;;;;;;;;;;;;;;;-144.99;100.00;67352.69;5099759;28;19912;-81
2024/03/11 08:35:23;;;;;;;;;;;;;;;-144.99;100.00;67352.69;5097600;28;19912;-81
2024/03/11 08:37:49;;;;;;;;;;;;;;;-144.99;100.00;67352.69;5088705;28;19920;-81
2024/03/11 08:40:15;;;;;;;;;;;;;;;-144.99;100.00;67352.69;5096958;28;19958;-81
2024/03/11 08:42:52;;;;;;;;;;;;;;;-144.99;100.00;67352.69;5096806;28;19916;-82
2024/03/11 08:45:18;;;;;;;;;;;;;;;-144.99;100.00;67352.69;5098102;28;19912;-81
2024/03/11 08:47:46;;;;;;;;;;;;;;;-144.99;100.00;67352.69;5096358;28;19944;-81
2024/03/11 08:50:13;;;;;;;;;;;;;;;-144.99;100.00;67352.69;5095853;28;19965;-81
2024/03/11 08:52:38;;;;;;;;;;;;;;;-144.99;100.00;67352.69;5095029;28;19912;-80
2024/03/11 08:55:05;;;;;;;;;;;;;;;-144.99;100.00;67352.69;5096957;28;20402;-81
2024/03/11 08:57:31;;;;;;;;;;;;;;;-144.99;100.00;67352.69;5096769;28;19912;-81
2024/03/11 08:59:56;;;;;;;;;;;;;;;-144.99;100.00;67352.69;5095790;28;19919;-81
2024/03/11 09:02:22;;;;;;;;;;;;;;;-144.99;100.00;67352.69;5095109;28;19922;-81
2024/03/11 09:04:47;;;;;;;;;;;;;;;-144.99;100.00;67352.69;5094945;28;19965;-81
2024/03/11 09:07:13;;;;;;;;;;;;;;;-144.99;100.00;67352.69;5094241;28;19912;-81
2024/03/11 09:09:38;;;;;;;;;;;;;;;-144.99;100.00;67352.69;5094969;28;19919;-80
2024/03/11 09:12:05;;;;;;;;;;;;;;;-144.99;100.00;67352.69;5093598;28;19915;-81
2024/03/11 09:14:33;;;;;;;;;;;;;;;-144.99;100.00;67352.69;5095674;28;19915;-80
2024/03/11 09:17:00;;;;;;;;;;;;;;;-144.99;100.00;67352.69;5094042;28;20298;-80
2024/03/11 09:19:25;;;;;;;;;;;;;;;-144.99;100.00;67352.69;5092751;28;19912;-81
2024/03/11 09:21:51;;;;;;;;;;;;;;;-144.99;100.00;67352.69;5093316;28;19913;-82
2024/03/11 09:24:17;;;;;;;;;;;;;;;-144.99;100.00;67352.69;5094961;28;19912;-82
2024/03/11 09:26:43;;;;;;;;;;;;;;;-144.99;100.00;67352.69;5094400;28;20401;-82
2024/03/11 09:29:11;;;;;;;;;;;;;;;-144.99;100.00;67352.69;5094243;28;19927;-81
2024/03/11 09:31:37;;;;;;;;;;;;;;;-144.99;100.00;67352.69;5093015;28;19912;-82
2024/03/11 09:34:03;;;;;;;;;;;;;;;-144.99;100.00;67352.69;5093031;28;20445;-81
2024/03/11 09:36:28;;;;;;;;;;;;;;;-144.99;100.00;67352.69;5091950;28;19919;-82
2024/03/11 09:38:53;;;;;;;;;;;;;;;-144.99;100.00;67352.69;5092656;28;19919;-82
2024/03/11 09:41:19;;;;;;;;;;;;;;;-144.99;100.00;67352.69;5091769;28;20409;-82
2024/03/11 09:43:48;;;;;;;;;;;;;;;-144.99;100.00;67352.69;5092164;28;20546;-82
2024/03/11 09:46:16;;;;;;;;;;;;;;;-144.99;100.00;67352.69;5092790;28;19965;-82
2024/03/11 09:48:42;;;;;;;;;;;;;;;-144.99;100.00;67352.69;5097731;28;19918;-83
2024/03/11 09:51:10;;;;;;;;;;;;;;;-144.99;100.00;67352.69;5091866;28;19912;-80
2024/03/11 09:53:37;;;;;;;;;;;;;;;-144.99;100.00;67352.69;5091166;28;19978;-80
2024/03/11 09:56:03;;;;;;;;;;;;;;;-144.99;100.00;67352.69;5093095;28;19912;-81
2024/03/11 09:58:36;;;;;;;;;;;;;;;-144.99;100.00;67352.69;5090364;28;19912;-82
2024/03/11 10:01:02;;;;;;;;;;;;;;;-144.99;100.00;67352.69;5091887;28;19938;-82
2024/03/11 10:03:27;;;;;;;;;;;;;;;-144.99;100.00;67352.69;5091413;28;20325;-82
2024/03/11 10:05:56;;;;;;;;;;;;;;;-144.99;100.00;67352.69;5092293;28;19919;-82
2024/03/11 10:08:22;;;;;;;;;;;;;;;-144.99;100.00;67352.69;5091443;28;20401;-81
2024/03/11 10:11:06;;;;;;;;;;;;;;;-144.99;100.00;67352.69;5092027;28;19912;-81
2024/03/11 10:13:31;;;;;;;;;;;;;;;-144.99;100.00;67352.69;5091232;28;20003;-81
2024/03/11 10:16:08;;;;;;;;;;;;;;;-144.99;100.00;67352.69;5092695;28;20003;-82
2024/03/11 10:18:36;;;;;;;;;;;;;;;-144.99;100.00;67352.69;5090264;28;19912;-80
2024/03/11 10:21:01;;;;;;;;;;;;;;;-144.99;100.00;67352.69;5101101;28;19913;-81
2024/03/11 10:23:27;;;;;;;;;;;;;;;-144.99;100.00;67352.69;5106431;28;19980;-82
2024/03/11 10:26:17;;;;;;;;;;;;;;;-144.99;100.00;67352.69;5106238;28;19924;-82
2024/03/11 10:28:44;;;;;;;;;;;;;;;-144.99;100.00;67352.69;5104666;28;19934;-82
2024/03/11 10:31:18;;;;;;;;;;;;;;;-144.99;100.00;67352.69;5102990;28;19999;-82
2024/03/11 10:33:44;;;;;;;;;;;;;;;-144.99;100.00;67352.69;5080684;28;19971;-82
2024/03/11 10:36:11;;;;;;;;;;;;;;;-144.99;100.00;67352.69;5065360;28;19913;-82
2024/03/11 10:38:38;;;;;;;;;;;;;;;-144.99;100.00;67352.69;5083087;28;19962;-82
2024/03/11 10:41:20;;;;;;;;;;;;;;;-144.99;100.00;67352.69;5105058;28;19912;-82
2024/03/11 10:43:47;;;;;;;;;;;;;;;-144.99;100.00;67352.69;5102526;28;20023;-82
2024/03/11 10:46:15;;;;;;;;;;;;;;;-144.99;100.00;67352.69;5094010;28;19962;-82
2024/03/11 10:48:42;;;;;;;;;;;;;;;-144.99;100.00;67352.69;5086609;28;19920;-82
2024/03/11 10:51:09;;;;;;;;;;;;;;;-144.99;100.00;67352.69;5100367;28;19935;-83
2024/03/11 10:53:34;;;;;;;;;;;;;;;-144.99;100.00;67352.69;5097769;28;19912;-82
2024/03/11 10:56:00;;;;;;;;;;;;;;;-144.99;100.00;67352.69;5100499;28;19916;-82
2024/03/11 10:58:28;;;;;;;;;;;;;;;-144.99;100.00;67352.69;5100481;28;19938;-82
2024/03/11 11:01:02;;;;;;;;;;;;;;;-144.99;100.00;67352.69;5090930;28;19919;-83
2024/03/11 11:03:30;;;;;;;;;;;;;;;-144.99;100.00;67352.69;5096682;28;19920;-83
2024/03/11 11:06:00;;;;;;;;;;;;;;;-144.99;100.00;67352.69;5099768;28;19912;-82
2024/03/11 11:08:30;;;;;;;;;;;;;;;-144.99;100.00;67352.69;5100764;28;20010;-81
2024/03/11 11:10:57;;;;;;;;;;;;;;;-144.99;100.00;67352.69;5103683;28;19979;-82
2024/03/11 11:13:24;;;;;;;;;;;;;;;-144.99;100.00;67352.69;5102371;28;19999;-82
2024/03/11 11:15:50;;;;;;;;;;;;;;;-144.99;100.00;67352.69;5101548;28;19912;-82
2024/03/11 11:18:17;;;;;;;;;;;;;;;-144.99;100.00;67352.69;5101744;28;20306;-82
2024/03/11 11:20:49;;;;;;;;;;;;;;;-144.99;100.00;67352.69;5098085;28;19951;-82
2024/03/11 11:23:28;;;;;;;;;;;;;;;-144.99;100.00;67352.69;5097147;28;19923;-82
2024/03/11 11:25:56;;;;;;;;;;;;;;;-144.99;100.00;67352.69;5101198;28;19912;-82
2024/03/11 11:28:38;;;;;;;;;;;;;;;-144.99;100.00;67352.69;5092192;28;19916;-82
2024/03/11 11:31:26;;;;;;;;;;;;;;;-144.99;100.00;67352.69;5099802;28;19920;-82
2024/03/11 11:33:56;;;;;;;;;;;;;;;-144.99;100.00;67352.69;5102050;28;19912;-82
2024/03/11 11:36:30;;;;;;;;;;;;;;;-144.99;100.00;67352.69;5101660;28;19919;-82
2024/03/11 11:39:13;;;;;;;;;;;;;;;-144.99;100.00;67352.69;5101372;28;20034;-82
2024/03/11 11:41:40;;;;;;;;;;;;;;;-144.99;100.00;67352.69;5100345;28;19915;-82
2024/03/11 11:44:07;;;;;;;;;;;;;;;-144.99;100.00;67352.69;5096270;28;19924;-82
2024/03/11 11:46:42;;;;;;;;;;;;;;;-144.99;100.00;67352.69;5095070;28;19912;-82
2024/03/11 11:49:26;;;;;;;;;;;;;;;-144.99;100.00;67352.69;5095099;28;20271;-82
2024/03/11 11:51:54;;;;;;;;;;;;;;;-144.99;100.00;67352.69;5096193;28;20395;-82
2024/03/11 11:54:26;;;;;;;;;;;;;;;-144.99;100.00;67352.69;5097949;28;20366;-82
2024/03/11 11:57:19;;;;;;;;;;;;;;;-144.99;100.00;67352.69;5097350;28;19919;-81
2024/03/11 11:59:45;;;;;;;;;;;;;;;-144.99;100.00;67352.69;5094440;28;20670;-82
2024/03/11 12:02:27;;;;;;;;;;;;;;;-144.99;100.00;67352.69;5097303;28;19920;-82
2024/03/11 12:04:53;;;;;;;;;;;;;;;-144.99;100.00;67352.69;5097340;28;20370;-82
2024/03/11 12:07:22;;;;;;;;;;;;;;;-144.99;100.00;67352.69;5097444;28;20397;-82
2024/03/11 12:09:58;;;;;;;;;;;;;;;-144.99;100.00;67352.69;5096803;28;19912;-82
2024/03/11 12:12:26;;;;;;;;;;;;;;;-144.99;100.00;67352.69;5096213;28;19938;-82
2024/03/11 12:14:51;;;;;;;;;;;;;;;-144.99;100.00;67352.69;5095113;28;20480;-82
2024/03/11 12:17:17;;;;;;;;;;;;;;;-144.99;100.00;67352.69;5094718;28;19960;-82